Time;durP1;ratioP1;P1;durP2;ratioP2;P2;SDS_P1;SDS_P2;PMS_P1;PMS_P2;Temp;Humidity;BMP_temperature;BMP_pressure;BME280_temperature;BME280_humidity;BME280_pressure;Samples;Min_cycle;Max_cycle;Signal;HPM_P1;HPM_P2
2022/03/31 00:05:08;;;;;;;51.90;31.00;;;;;;;6.70;92.38;97338.20;4413603;78;21517;-86
2022/03/31 00:11:09;;;;;;;46.68;27.93;;;;;;;6.58;92.63;97342.67;4415109;78;21623;-87
2022/03/31 00:17:34;;;;;;;46.25;28.17;;;;;;;6.48;92.85;97337.98;4339503;80;22282;-87
2022/03/31 00:23:38;;;;;;;50.95;28.92;;;;;;;6.37;91.91;97339.34;4398112;79;21648;-87
2022/03/31 00:29:39;;;;;;;44.98;27.60;;;;;;;6.32;91.38;97351.95;4355076;80;21019;-88
2022/03/31 00:35:41;;;;;;;45.35;26.35;;;;;;;6.28;91.66;97344.36;4354072;80;21543;-87
2022/03/31 00:41:42;;;;;;;43.90;24.30;;;;;;;6.20;91.81;97338.74;4274689;80;21059;-88
2022/03/31 00:47:43;;;;;;;31.33;18.73;;;;;;;6.15;91.77;97352.10;4267534;82;20988;-87
2022/03/31 00:53:45;;;;;;;30.52;18.60;;;;;;;6.15;93.84;97347.27;4363648;80;20960;-88
2022/03/31 00:59:46;;;;;;;29.52;18.23;;;;;;;5.98;92.43;97346.05;4363708;80;21044;-88
2022/03/31 01:05:47;;;;;;;29.27;18.30;;;;;;;5.90;92.17;97343.71;4286573;81;21559;-88
2022/03/31 01:11:49;;;;;;;31.97;18.65;;;;;;;5.84;92.89;97355.51;4252710;82;20999;-87
2022/03/31 01:17:50;;;;;;;29.87;18.80;;;;;;;5.67;94.17;97364.94;4288584;81;21060;-87
2022/03/31 01:23:54;;;;;;;29.25;19.30;;;;;;;5.41;93.13;97373.32;4357625;80;21088;-86
2022/03/31 01:30:01;;;;;;;32.33;20.85;;;;;;;5.20;94.43;97370.50;4351943;80;21003;-87
2022/03/31 01:36:05;;;;;;;;;;;;;;;4.97;93.58;97381.58;4414325;79;21043;-87
2022/03/31 01:42:07;;;;;;;34.40;21.25;;;;;;;4.89;93.03;97379.96;4412474;79;20152;-88
2022/03/31 01:48:09;;;;;;;33.90;22.82;;;;;;;4.83;93.72;97382.83;4415998;79;21046;-87
2022/03/31 01:54:10;;;;;;;41.20;24.32;;;;;;;4.72;92.76;97376.54;4412485;79;21027;-87
2022/03/31 02:00:13;;;;;;;44.83;24.63;;;;;;;4.68;92.78;97383.88;4407508;79;21062;-87
2022/03/31 02:06:14;;;;;;;43.68;24.47;;;;;;;4.61;92.60;97374.31;4320947;80;21037;-88
2022/03/31 02:12:16;;;;;;;42.27;25.00;;;;;;;4.60;93.35;97377.59;4334521;79;21038;-88
2022/03/31 02:18:25;;;;;;;41.45;25.50;;;;;;;4.52;92.76;97378.71;4449413;78;21950;-88
2022/03/31 02:24:26;;;;;;;39.35;24.55;;;;;;;4.54;92.88;97388.58;4334944;80;21018;-87
2022/03/31 02:30:29;;;;;;;35.05;23.27;;;;;;;4.53;92.74;97390.31;4339872;80;21109;-88
2022/03/31 02:36:31;;;;;;;33.25;21.68;;;;;;;4.46;92.58;97391.02;4270282;82;21015;-87
2022/03/31 02:42:35;;;;;;;29.98;20.15;;;;;;;4.46;92.57;97380.78;4282656;82;21047;-87
2022/03/31 02:48:42;;;;;;;25.32;17.92;;;;;;;4.43;92.37;97376.86;4348256;80;21045;-87
2022/03/31 03:01:14;;;;;;;23.20;16.80;;;;;;;4.30;92.46;97371.53;4339254;81;21180;-86
2022/03/31 03:07:16;;;;;;;25.68;17.23;;;;;;;4.28;92.44;97390.08;4409019;79;21546;-87
2022/03/31 03:13:21;;;;;;;25.80;16.80;;;;;;;4.28;92.51;97387.37;4411394;80;21030;-88
2022/03/31 03:19:22;;;;;;;26.90;17.07;;;;;;;4.25;92.39;97389.47;4413799;79;22253;-87
2022/03/31 03:25:23;;;;;;;19.45;14.23;;;;;;;4.22;92.46;97396.98;4340825;81;21519;-88
2022/03/31 03:31:25;;;;;;;24.57;15.50;;;;;;;4.19;92.52;97385.55;4430704;79;21513;-86
2022/03/31 03:37:26;;;;;;;18.73;14.05;;;;;;;4.13;92.59;97387.04;4298270;79;228592;-87
2022/03/31 03:43:28;;;;;;;24.47;16.20;;;;;;;4.09;92.67;97398.39;4190638;83;21657;-87
2022/03/31 03:49:29;;;;;;;18.45;11.95;;;;;;;4.05;92.69;97396.23;4149487;83;21071;-88
2022/03/31 03:55:34;;;;;;;18.02;12.13;;;;;;;4.00;92.59;97401.97;4172745;84;21993;-89
2022/03/31 04:01:35;;;;;;;18.55;12.15;;;;;;;3.96;92.82;97394.36;4193076;84;21046;-88
2022/03/31 04:07:36;;;;;;;18.70;12.35;;;;;;;3.93;92.75;97390.29;4150398;83;21066;-87
2022/03/31 04:13:37;;;;;;;14.53;11.15;;;;;;;3.91;92.87;97404.19;4099766;84;21945;-88
2022/03/31 04:19:39;;;;;;;13.30;9.63;;;;;;;3.93;92.86;97410.59;4296502;80;21111;-89
2022/03/31 04:25:40;;;;;;;16.97;11.25;;;;;;;3.92;93.21;97421.20;4310947;80;20991;-88
2022/03/31 04:31:43;;;;;;;15.28;10.58;;;;;;;3.90;93.34;97420.81;4341544;81;22283;-87
2022/03/31 04:38:13;;;;;;;13.65;10.58;;;;;;;3.85;93.10;97426.54;4331009;80;21010;-89
2022/03/31 04:44:14;;;;;;;13.05;9.40;;;;;;;3.82;93.04;97434.05;4322525;81;21070;-88
2022/03/31 04:50:15;;;;;;;18.85;10.25;;;;;;;3.78;93.22;97432.64;4367053;81;21114;-88
2022/03/31 04:56:45;;;;;;;12.65;9.90;;;;;;;3.74;93.22;97436.45;4321018;80;20983;-89
2022/03/31 05:02:46;;;;;;;13.62;10.50;;;;;;;3.72;93.38;97449.00;4332692;80;21109;-87
2022/03/31 05:08:47;;;;;;;12.03;9.08;;;;;;;3.71;93.32;97450.72;4320058;81;21500;-87
2022/03/31 05:14:56;;;;;;;10.08;6.95;;;;;;;3.69;93.45;97450.30;4328036;80;21014;-89
2022/03/31 05:21:01;;;;;;;13.50;8.60;;;;;;;3.58;93.47;97450.16;4321842;80;21035;-89
2022/03/31 05:27:03;;;;;;;13.65;9.50;;;;;;;3.56;93.60;97464.63;4305030;81;21068;-88
2022/03/31 05:33:07;;;;;;;16.45;10.95;;;;;;;3.56;93.63;97465.98;4309547;80;21031;-88
2022/03/31 05:39:08;;;;;;;9.10;7.50;;;;;;;3.49;94.56;97479.42;4314052;80;21028;-88
2022/03/31 05:45:12;;;;;;;18.65;8.85;;;;;;;3.37;94.90;97486.96;4142199;85;21639;-88
2022/03/31 05:51:14;;;;;;;14.47;9.30;;;;;;;3.28;94.41;97489.12;4257728;81;21079;-89
2022/03/31 05:57:17;;;;;;;14.13;10.18;;;;;;;3.25;94.29;97485.23;4262838;81;21586;-89
2022/03/31 06:03:21;;;;;;;13.50;10.43;;;;;;;3.26;94.30;97480.61;4265617;82;21027;-87
2022/03/31 06:09:21;;;;;;;13.30;10.03;;;;;;;3.26;94.44;97474.61;4318625;80;21059;-87
2022/03/31 06:15:23;;;;;;;13.85;10.90;;;;;;;3.29;94.59;97478.53;4306470;81;21599;-88
2022/03/31 06:21:24;;;;;;;12.95;9.63;;;;;;;3.31;94.63;97480.28;4281303;80;21100;-89
2022/03/31 06:27:26;;;;;;;10.72;8.85;;;;;;;3.30;94.51;97476.81;4207531;82;21001;-89
2022/03/31 06:33:28;;;;;;;12.90;10.00;;;;;;;3.32;94.50;97483.97;4261619;83;21111;-88
2022/03/31 06:39:29;;;;;;;12.55;10.78;;;;;;;3.34;94.54;97488.45;4230021;83;21050;-87
2022/03/31 06:45:32;;;;;;;12.68;10.08;;;;;;;3.38;94.59;97487.95;4236136;81;21607;-89
2022/03/31 06:51:33;;;;;;;13.65;10.38;;;;;;;3.40;94.64;97496.46;4220765;83;20986;-87
2022/03/31 06:57:37;;;;;;;10.68;8.80;;;;;;;3.46;94.69;97506.41;4111804;84;21039;-88
2022/03/31 07:03:38;;;;;;;11.10;8.85;;;;;;;3.46;94.80;97502.36;4196764;82;21880;-88
2022/03/31 07:09:40;;;;;;;11.93;9.70;;;;;;;3.47;94.79;97503.34;4235542;82;21018;-88
2022/03/31 07:15:42;;;;;;;11.22;8.70;;;;;;;3.49;94.79;97504.33;4231184;83;20995;-88
2022/03/31 07:21:43;;;;;;;11.05;9.40;;;;;;;3.50;95.38;97523.47;4252320;82;21098;-87
2022/03/31 07:27:45;;;;;;;16.07;11.22;;;;;;;3.42;95.16;97524.50;4219535;83;21170;-87
2022/03/31 07:33:55;;;;;;;15.35;12.82;;;;;;;3.42;94.98;97527.99;4241446;81;21008;-88
2022/03/31 07:39:56;;;;;;;16.20;13.38;;;;;;;3.48;95.09;97528.48;4325114;80;21133;-88
2022/03/31 07:46:01;;;;;;;17.15;14.98;;;;;;;3.45;95.38;97536.73;4334526;81;21093;-89
2022/03/31 07:52:04;;;;;;;19.67;14.65;;;;;;;3.42;95.55;97535.31;4333152;80;21010;-87
2022/03/31 07:58:06;;;;;;;18.20;14.68;;;;;;;3.37;95.25;97537.00;4243746;82;20966;-88
2022/03/31 08:04:07;;;;;;;20.35;15.38;;;;;;;3.36;95.27;97535.42;4310334;80;21530;-87
2022/03/31 08:10:09;;;;;;;18.05;15.13;;;;;;;3.34;95.38;97547.95;4306913;82;22210;-88
2022/03/31 08:16:10;;;;;;;18.57;15.10;;;;;;;3.33;95.39;97555.88;4298045;80;21075;-88
2022/03/31 08:22:12;;;;;;;26.90;20.27;;;;;;;3.40;95.40;97559.27;4286565;80;21022;-88
2022/03/31 08:28:21;;;;;;;22.35;16.37;;;;;;;3.45;95.42;97560.29;4242952;83;20987;-88
2022/03/31 08:34:26;;;;;;;13.18;10.13;;;;;;;3.61;95.65;97567.14;4200911;84;21030;-88
2022/03/31 08:40:35;;;;;;;14.80;11.35;;;;;;;3.76;95.60;97566.20;4166491;84;21025;-88
2022/03/31 08:46:38;;;;;;;12.25;8.98;;;;;;;3.81;95.79;97567.24;4161013;84;20981;-89
2022/03/31 08:52:40;;;;;;;10.32;8.60;;;;;;;3.85;96.02;97565.39;4167040;84;21109;-87
2022/03/31 08:58:45;;;;;;;11.05;8.50;;;;;;;3.83;95.68;97557.41;4163662;84;21062;-87
2022/03/31 09:04:47;;;;;;;14.87;10.63;;;;;;;3.79;96.16;97561.41;4153318;84;21093;-88
2022/03/31 09:10:53;;;;;;;16.48;12.88;;;;;;;3.72;96.02;97560.52;4210358;82;21974;-88
2022/03/31 09:16:55;;;;;;;12.43;10.03;;;;;;;3.68;95.87;97559.70;4155566;83;21069;-88
2022/03/31 09:22:56;;;;;;;21.07;15.55;;;;;;;3.64;96.23;97556.94;4194866;83;21990;-88
2022/03/31 09:29:12;;;;;;;22.05;15.40;;;;;;;3.60;95.95;97557.47;4211895;83;20999;-87
2022/03/31 09:35:18;;;;;;;26.87;17.60;;;;;;;3.65;96.06;97565.25;4211002;83;21038;-89
2022/03/31 09:41:26;;;;;;;23.50;16.07;;;;;;;3.66;95.91;97568.75;4209776;82;21046;-88
2022/03/31 09:47:28;;;;;;;22.20;16.25;;;;;;;3.63;95.81;97566.77;4136707;84;21302;-87
2022/03/31 09:53:32;;;;;;;26.33;17.85;;;;;;;3.62;95.94;97558.45;4264074;82;21118;-89
2022/03/31 09:59:38;;;;;;;24.98;18.55;;;;;;;3.59;96.00;97561.86;4286904;82;21021;-88
2022/03/31 10:05:42;;;;;;;16.40;13.48;;;;;;;3.57;96.39;97559.52;4272826;81;21014;-88
2022/03/31 10:11:49;;;;;;;22.37;15.32;;;;;;;3.57;96.24;97558.77;4276519;82;21027;-88
2022/03/31 10:17:51;;;;;;;18.50;13.90;;;;;;;3.60;96.26;97551.27;4274482;81;21060;-88
2022/03/31 10:31:03;;;;;;;18.80;13.83;;;;;;;3.65;96.29;97537.44;4308368;80;21586;-89
2022/03/31 10:37:07;;;;;;;20.27;13.60;;;;;;;3.67;96.23;97531.85;4288264;80;21015;-87
2022/03/31 10:43:25;;;;;;;20.27;14.35;;;;;;;3.67;96.17;97529.14;4166714;83;21088;-88
2022/03/31 10:49:27;;;;;;;20.50;14.90;;;;;;;3.70;96.12;97525.70;4299177;80;21576;-88
2022/03/31 10:55:49;;;;;;;24.07;17.10;;;;;;;3.70;96.53;97527.06;4307142;80;21012;-88
2022/03/31 11:01:53;;;;;;;23.42;15.70;;;;;;;3.65;96.34;97527.37;4320575;81;21074;-87
2022/03/31 11:08:06;;;;;;;21.80;14.83;;;;;;;3.61;96.47;97533.31;4249177;81;21065;-89
2022/03/31 11:14:09;;;;;;;22.10;15.35;;;;;;;3.60;96.41;97533.12;4319024;80;21088;-87
2022/03/31 11:20:19;;;;;;;20.50;15.75;;;;;;;3.55;97.06;97529.36;4289212;80;21054;-88
2022/03/31 11:26:29;;;;;;;24.67;16.25;;;;;;;3.51;96.92;97519.63;4314053;81;21485;-89
2022/03/31 11:32:33;;;;;;;22.48;15.65;;;;;;;3.52;96.76;97516.56;4330302;80;21003;-88
2022/03/31 11:38:34;;;;;;;21.62;16.25;;;;;;;3.57;97.04;97509.47;4325724;81;21019;-88
2022/03/31 11:44:42;;;;;;;25.88;16.25;;;;;;;3.60;96.97;97504.70;4389824;80;21534;-88
2022/03/31 11:51:00;;;;;;;23.25;16.42;;;;;;;3.60;96.87;97499.30;4303269;81;21612;-88
2022/03/31 11:57:06;;;;;;;21.68;15.08;;;;;;;3.65;96.99;97503.61;4338099;81;20994;-86
2022/03/31 12:03:09;;;;;;;31.15;16.57;;;;;;;3.64;97.04;97506.09;4206713;82;21094;-87
2022/03/31 12:09:13;;;;;;;24.25;13.72;;;;;;;3.69;97.13;97506.56;4238929;83;21087;-88
2022/03/31 12:15:27;;;;;;;18.30;12.37;;;;;;;3.73;97.30;97504.67;4247085;82;21025;-88
2022/03/31 12:21:29;;;;;;;20.82;13.48;;;;;;;3.74;97.62;97493.29;4186579;84;21073;-87
2022/03/31 12:27:30;;;;;;;22.87;13.48;;;;;;;3.73;98.00;97479.56;4208465;84;21022;-87
2022/03/31 12:33:36;;;;;;;24.00;15.45;;;;;;;3.67;97.76;97468.82;4196993;84;21059;-87
2022/03/31 12:40:03;;;;;;;29.60;20.10;;;;;;;3.64;97.75;97473.05;4189954;83;21293;-87
2022/03/31 12:46:17;;;;;;;33.55;20.10;;;;;;;3.59;97.96;97463.09;3856318;89;21113;-89
2022/03/31 12:52:21;;;;;;;31.70;20.32;;;;;;;3.55;97.74;97467.13;3913874;88;21669;-89
2022/03/31 12:58:37;;;;;;;27.98;17.73;;;;;;;3.54;97.86;97462.09;3869071;91;22696;-88
2022/03/31 13:04:42;;;;;;;29.27;19.03;;;;;;;3.52;97.70;97455.69;3959443;88;21066;-90
2022/03/31 13:10:44;;;;;;;36.05;24.32;;;;;;;3.53;97.72;97463.22;3952087;89;21529;-94
2022/03/31 13:16:47;;;;;;;30.27;20.43;;;;;;;3.48;97.70;97466.26;4008901;87;21590;-93
2022/03/31 13:22:50;;;;;;;30.17;18.02;;;;;;;3.47;97.74;97457.91;4035398;87;21129;-90
2022/03/31 13:28:51;;;;;;;25.27;16.45;;;;;;;3.48;98.15;97463.55;4060681;87;21082;-90
2022/03/31 13:34:53;;;;;;;20.68;13.75;;;;;;;3.45;97.88;97457.49;4033627;86;21131;-90
2022/03/31 13:40:54;;;;;;;21.60;12.63;;;;;;;3.47;98.19;97454.65;4051146;86;21169;-90
2022/03/31 13:46:57;;;;;;;19.05;12.58;;;;;;;3.44;98.17;97439.15;4008213;87;21102;-89
2022/03/31 14:05:39;;;;;;;21.60;13.28;;;;;;;3.45;98.25;97425.03;4008656;87;21007;-90
2022/03/31 14:11:41;;;;;;;14.65;10.38;;;;;;;3.45;98.37;97424.47;4009395;87;21118;-91
2022/03/31 14:17:42;;;;;;;16.95;11.80;;;;;;;3.40;98.63;97426.13;4008104;87;21429;-88
2022/03/31 14:23:45;;;;;;;17.02;12.03;;;;;;;3.37;98.73;97417.39;4012246;87;21114;-93
2022/03/31 14:29:48;;;;;;;16.17;11.70;;;;;;;3.40;98.43;97418.02;3996781;87;21645;-89
2022/03/31 14:35:50;;;;;;;24.23;13.78;;;;;;;3.45;98.58;97407.45;3939532;89;21120;-90
2022/03/31 14:41:53;;;;;;;18.80;12.75;;;;;;;3.44;98.60;97408.60;3867059;90;21086;-89
2022/03/31 14:47:54;;;;;;;16.65;12.20;;;;;;;3.39;98.59;97408.35;4017075;87;21163;-89
2022/03/31 14:53:56;;;;;;;18.70;13.15;;;;;;;3.30;98.73;97395.67;3936367;89;21166;-88
2022/03/31 14:59:58;;;;;;;20.35;11.80;;;;;;;3.24;98.49;97397.14;3868051;90;21092;-89
2022/03/31 15:06:02;;;;;;;20.17;12.70;;;;;;;3.23;98.52;97392.09;3878988;90;21072;-90
2022/03/31 15:18:26;;;;;;;17.95;11.00;;;;;;;3.21;98.60;97382.41;3994818;88;21054;-89
2022/03/31 15:24:29;;;;;;;16.50;10.70;;;;;;;3.14;99.20;97370.72;3999616;87;21094;-89
2022/03/31 15:30:36;;;;;;;21.05;13.43;;;;;;;3.06;99.28;97369.84;3929530;89;21149;-87
2022/03/31 15:36:37;;;;;;;17.85;10.80;;;;;;;3.00;98.90;97377.28;3859103;91;21134;-94
2022/03/31 15:42:39;;;;;;;12.53;8.83;;;;;;;3.00;98.77;97367.81;4007533;87;21072;-88
2022/03/31 15:48:42;;;;;;;14.30;9.20;;;;;;;2.95;98.88;97372.17;4019832;87;21085;-88
2022/03/31 15:54:43;;;;;;;13.43;8.93;;;;;;;2.88;99.07;97364.73;4033460;87;21061;-88
2022/03/31 16:00:45;;;;;;;30.50;16.70;;;;;;;2.82;98.87;97355.39;4034829;87;21102;-89
2022/03/31 16:06:47;;;;;;;23.92;12.70;;;;;;;2.77;98.85;97353.58;4006947;87;21064;-88
2022/03/31 16:12:49;;;;;;;15.88;9.83;;;;;;;2.71;98.94;97347.69;4043204;86;21116;-87
2022/03/31 16:18:50;;;;;;;16.17;10.82;;;;;;;2.67;99.16;97353.63;4014085;86;21561;-88
2022/03/31 16:24:51;;;;;;;16.25;11.63;;;;;;;2.57;99.08;97354.81;4020401;87;21101;-89
2022/03/31 16:30:53;;;;;;;22.73;13.72;;;;;;;2.49;99.15;97353.89;4012801;86;21099;-87
2022/03/31 16:36:54;;;;;;;17.07;11.15;;;;;;;2.47;99.47;97349.45;4011463;87;21094;-91
2022/03/31 16:42:55;;;;;;;16.00;11.75;;;;;;;2.35;99.22;97344.21;4023832;86;21633;-89
2022/03/31 16:48:57;;;;;;;18.85;12.30;;;;;;;2.28;99.30;97347.37;4016711;87;21055;-89
2022/03/31 16:54:58;;;;;;;17.60;12.13;;;;;;;2.22;99.14;97338.02;3990704;87;21126;-87
2022/03/31 17:01:00;;;;;;;15.70;10.48;;;;;;;2.20;99.40;97328.14;3997372;87;21119;-87
2022/03/31 17:07:04;;;;;;;19.52;13.88;;;;;;;2.12;99.05;97331.84;4003492;86;21599;-90
2022/03/31 17:13:07;;;;;;;17.35;12.30;;;;;;;2.07;99.19;97338.92;4047248;87;21086;-89
2022/03/31 17:19:09;;;;;;;23.20;14.85;;;;;;;2.00;99.33;97331.47;4031764;87;21057;-88
2022/03/31 17:25:10;;;;;;;21.00;14.07;;;;;;;1.85;99.18;97334.28;4034637;87;21038;-90
2022/03/31 17:31:11;;;;;;;23.50;15.08;;;;;;;1.74;99.20;97330.59;4007156;87;21078;-91
2022/03/31 17:37:13;;;;;;;29.75;19.30;;;;;;;1.67;99.10;97334.50;4023607;87;21094;-89
2022/03/31 17:43:16;;;;;;;23.10;15.15;;;;;;;1.56;99.26;97323.52;4022142;87;22375;-91
2022/03/31 17:49:20;;;;;;;25.25;15.32;;;;;;;1.49;99.23;97327.41;4023328;87;21067;-93
2022/03/31 17:55:24;;;;;;;20.85;13.72;;;;;;;1.44;99.07;97331.17;4016532;88;22097;-89
2022/03/31 18:01:26;;;;;;;22.93;13.68;;;;;;;1.40;99.51;97325.50;4026199;86;21122;-91
2022/03/31 18:07:30;;;;;;;25.35;14.75;;;;;;;1.32;99.54;97331.32;4013954;88;21046;-86
2022/03/31 18:13:32;;;;;;;23.57;13.95;;;;;;;1.24;99.29;97347.13;4001556;87;21074;-91
2022/03/31 18:19:34;;;;;;;22.58;14.65;;;;;;;1.20;99.67;97341.45;4029053;87;21083;-89
2022/03/31 18:25:36;;;;;;;19.52;13.55;;;;;;;1.09;99.52;97339.89;4025207;86;21082;-89
2022/03/31 18:37:57;;;;;;;26.15;15.08;;;;;;;0.96;99.94;97345.18;4016242;87;21581;-88
2022/03/31 18:44:03;;;;;;;25.72;15.08;;;;;;;0.88;100.00;97358.28;3936258;88;21079;-91
2022/03/31 18:50:08;;;;;;;24.70;14.83;;;;;;;0.77;99.77;97351.87;4025184;87;22025;-89
2022/03/31 18:56:09;;;;;;;23.15;15.05;;;;;;;0.68;99.51;97354.53;4017910;87;21066;-88
2022/03/31 19:02:13;;;;;;;19.45;12.63;;;;;;;0.62;99.75;97359.42;3933236;89;21103;-89
2022/03/31 19:08:20;;;;;;;21.62;13.40;;;;;;;0.57;99.80;97351.59;3873423;90;21186;-87
2022/03/31 19:14:19;;;;;;;24.45;14.73;;;;;;;0.53;99.67;97347.27;3836212;91;22088;-88
2022/03/31 19:20:21;;;;;;;23.70;15.65;;;;;;;0.49;99.73;97340.44;3902765;90;21084;-88
2022/03/31 19:26:24;;;;;;;25.52;16.55;;;;;;;0.31;99.69;97319.06;3888448;90;21052;-90
2022/03/31 19:32:26;;;;;;;31.05;18.90;;;;;;;0.31;99.69;97319.06;3896477;90;21171;-94
2022/03/31 19:38:28;;;;;;;30.27;17.00;;;;;;;0.39;99.89;97328.88;3891526;90;21441;-94
2022/03/31 19:44:30;;;;;;;26.07;15.83;;;;;;;0.39;99.89;97328.88;3847998;90;22351;-87
2022/03/31 19:50:31;;;;;;;24.47;15.28;;;;;;;0.39;99.95;97332.91;3860818;90;21066;-90
2022/03/31 19:56:36;;;;;;;39.40;21.15;;;;;;;0.37;99.76;97327.09;3774500;92;21664;-88
2022/03/31 20:02:37;;;;;;;27.85;17.15;;;;;;;0.35;99.84;97325.30;3792820;92;21102;-86
2022/03/31 20:08:40;;;;;;;25.32;16.17;;;;;;;0.20;99.94;97288.42;3824040;91;21091;-89
2022/03/31 20:14:41;;;;;;;28.20;16.67;;;;;;;0.20;99.94;97288.42;3927400;89;21203;-85
2022/03/31 20:20:43;;;;;;;27.60;16.07;;;;;;;0.29;99.90;97294.40;3927794;89;22135;-89
2022/03/31 20:26:44;;;;;;;27.17;17.07;;;;;;;0.29;99.90;97294.40;3927120;89;21094;-91
2022/03/31 20:32:46;;;;;;;30.85;17.40;;;;;;;0.29;99.88;97289.58;3856961;91;21213;-89
2022/03/31 20:38:49;;;;;;;33.50;16.62;;;;;;;0.27;100.00;97272.43;3914201;89;21140;-89
2022/03/31 20:44:50;;;;;;;28.45;16.50;;;;;;;0.15;100.00;97248.87;3955344;88;21162;-87
2022/03/31 20:50:52;;;;;;;31.73;16.80;;;;;;;0.15;100.00;97244.84;4003091;87;21098;-91
2022/03/31 20:56:55;;;;;;;29.85;16.55;;;;;;;0.19;100.00;97251.10;4009902;88;21094;-90
2022/03/31 21:02:58;;;;;;;35.63;19.42;;;;;;;0.15;99.99;97244.84;3999066;87;21110;-89
2022/03/31 21:09:00;;;;;;;24.07;14.73;;;;;;;0.15;99.99;97244.84;3997480;87;21065;-87
2022/03/31 21:15:02;;;;;;;22.52;14.65;;;;;;;0.25;99.99;97260.47;4004999;88;21063;-85
2022/03/31 21:21:04;;;;;;;23.50;15.83;;;;;;;0.24;99.79;97256.98;3997446;87;21146;-86
2022/03/31 21:27:06;;;;;;;28.00;16.10;;;;;;;0.22;99.83;97244.44;4000815;88;21079;-86
2022/03/31 21:33:10;;;;;;;31.55;17.70;;;;;;;0.22;99.83;97244.44;4005301;87;21696;-87
2022/03/31 21:39:12;;;;;;;27.25;16.25;;;;;;;0.21;100.00;97234.02;3960425;89;21132;-85
2022/03/31 21:45:15;;;;;;;30.27;19.17;;;;;;;0.21;100.00;97234.02;4041900;86;21077;-87
2022/03/31 21:51:16;;;;;;;26.52;16.62;;;;;;;0.23;100.00;97242.53;4029842;86;21146;-87
2022/03/31 21:57:19;;;;;;;29.37;16.32;;;;;;;0.22;100.00;97235.02;4013372;87;21114;-86
2022/03/31 22:03:20;;;;;;;24.60;13.85;;;;;;;0.21;100.00;97231.33;3938180;89;21110;-87
2022/03/31 22:15:41;;;;;;;19.75;13.08;;;;;;;0.20;100.00;97217.12;4008931;87;21086;-90
2022/03/31 22:21:46;;;;;;;20.25;11.10;;;;;;;0.22;100.00;97210.03;3941571;89;21145;-91
2022/03/31 22:27:48;;;;;;;18.15;12.25;;;;;;;0.21;100.00;97207.90;3939384;89;21047;-88
2022/03/31 22:33:50;;;;;;;26.60;12.55;;;;;;;0.22;100.00;97204.07;3887250;90;21102;-87
2022/03/31 22:39:53;;;;;;;14.63;8.88;;;;;;;0.22;100.00;97204.07;3982615;87;21075;-89
2022/03/31 22:45:55;;;;;;;13.30;8.75;;;;;;;0.22;100.00;97191.20;3981666;87;22023;-88
2022/03/31 22:51:57;;;;;;;13.62;8.40;;;;;;;0.22;100.00;97191.95;3932335;88;21130;-87
2022/03/31 22:57:58;;;;;;;14.00;8.55;;;;;;;0.10;100.00;97157.66;3997898;87;21098;-87
2022/03/31 23:04:04;;;;;;;14.18;9.33;;;;;;;0.10;100.00;97151.72;4007610;87;21746;-87
2022/03/31 23:10:07;;;;;;;12.93;8.70;;;;;;;0.10;100.00;97151.72;4015990;87;22117;-87
2022/03/31 23:16:08;;;;;;;15.18;10.08;;;;;;;0.20;100.00;97161.95;4013791;87;21129;-87
2022/03/31 23:22:10;;;;;;;12.58;8.85;;;;;;;0.20;100.00;97155.22;3913019;89;21100;-87
2022/03/31 23:28:13;;;;;;;18.07;10.40;;;;;;;0.20;100.00;97155.22;3889563;90;21069;-89
2022/03/31 23:34:14;;;;;;;18.98;10.72;;;;;;;0.13;100.00;97130.05;4010533;87;21059;-90
2022/03/31 23:40:16;;;;;;;14.93;10.85;;;;;;;0.13;100.00;97130.05;3990207;88;21083;-87
2022/03/31 23:46:17;;;;;;;19.30;11.75;;;;;;;0.22;100.00;97145.45;4014807;87;21444;-87
2022/03/31 23:52:19;;;;;;;16.70;11.65;;;;;;;0.23;100.00;97139.72;3995052;87;21122;-87
2022/03/31 23:58:20;;;;;;;16.90;11.63;;;;;;;0.22;100.00;97116.61;3918524;89;21054;-87
